Time;durP1;ratioP1;P1;durP2;ratioP2;P2;SDS_P1;SDS_P2;PMS_P1;PMS_P2;Temp;Humidity;BMP_temperature;BMP_pressure;BME280_temperature;BME280_humidity;BME280_pressure;Samples;Min_cycle;Max_cycle;Signal;HPM_P1;HPM_P2
2021/12/12 00:00:13;;;;;;;0.08;0.08;;;;;;;;;;1723759;28;20339;-71
2021/12/12 00:01:12;;;;;;;0.10;0.10;;;;;;;;;;1717638;28;20243;-71
2021/12/12 00:02:09;;;;;;;0.00;0.00;;;;;;;;;;1721147;28;20271;-71
2021/12/12 00:03:10;;;;;;;0.00;0.00;;;;;;;;;;1722757;28;20781;-71
2021/12/12 00:04:10;;;;;;;0.10;0.10;;;;;;;;;;1723435;28;20231;-71
2021/12/12 00:05:09;;;;;;;0.03;0.03;;;;;;;;;;1719167;28;20486;-71
2021/12/12 00:06:01;;;;;;;0.00;0.00;;;;;;;;;;1718303;28;20243;-71
2021/12/12 00:07:01;;;;;;;0.05;0.05;;;;;;;;;;1717769;28;20272;-71
2021/12/12 00:07:53;;;;;;;0.00;0.00;;;;;;;;;;1719334;28;20221;-71
2021/12/12 00:08:47;;;;;;;0.00;0.00;;;;;;;;;;1722216;28;20204;-71
2021/12/12 00:09:40;;;;;;;0.10;0.10;;;;;;;;;;1719413;28;20687;-71
2021/12/12 00:10:34;;;;;;;0.08;0.08;;;;;;;;;;1717504;28;20206;-71
2021/12/12 00:11:28;;;;;;;0.10;0.10;;;;;;;;;;1719251;28;20210;-71
2021/12/12 00:12:22;;;;;;;0.10;0.10;;;;;;;;;;1723576;28;20608;-71
2021/12/12 00:13:15;;;;;;;0.08;0.08;;;;;;;;;;1722869;28;20754;-71
2021/12/12 00:14:09;;;;;;;0.00;0.00;;;;;;;;;;1719486;28;20209;-71
2021/12/12 00:15:01;;;;;;;0.15;0.15;;;;;;;;;;1722926;28;20267;-71
2021/12/12 00:15:53;;;;;;;0.10;0.10;;;;;;;;;;1717295;28;20793;-71
2021/12/12 00:16:45;;;;;;;0.10;0.10;;;;;;;;;;1722796;28;20202;-71
2021/12/12 00:17:38;;;;;;;0.00;0.00;;;;;;;;;;1718659;28;20201;-71
2021/12/12 00:18:30;;;;;;;0.00;0.00;;;;;;;;;;1723040;28;20213;-71
2021/12/12 00:19:23;;;;;;;0.10;0.10;;;;;;;;;;1722175;28;20198;-71
2021/12/12 00:20:17;;;;;;;0.10;0.10;;;;;;;;;;1718544;28;20231;-71
2021/12/12 00:21:11;;;;;;;0.00;0.00;;;;;;;;;;1717286;28;20373;-71
2021/12/12 00:22:04;;;;;;;0.00;0.00;;;;;;;;;;1722254;28;20211;-71
2021/12/12 00:22:59;;;;;;;0.10;0.10;;;;;;;;;;1719533;28;20237;-71
2021/12/12 00:23:50;;;;;;;0.10;0.10;;;;;;;;;;1721028;28;20559;-71
2021/12/12 00:24:42;;;;;;;0.00;0.00;;;;;;;;;;1720242;28;20279;-71
2021/12/12 00:25:35;;;;;;;0.00;0.00;;;;;;;;;;1720646;28;20206;-71
2021/12/12 00:26:28;;;;;;;0.10;0.10;;;;;;;;;;1720701;28;20235;-71
2021/12/12 00:27:21;;;;;;;0.13;0.13;;;;;;;;;;1723936;28;20204;-71
2021/12/12 00:28:15;;;;;;;0.00;0.00;;;;;;;;;;1724069;28;20559;-71
2021/12/12 00:29:07;;;;;;;0.10;0.10;;;;;;;;;;1719632;28;20215;-71
2021/12/12 00:30:03;;;;;;;0.00;0.00;;;;;;;;;;1723982;28;20208;-71
2021/12/12 00:30:56;;;;;;;0.10;0.10;;;;;;;;;;1719157;28;20232;-71
2021/12/12 00:31:49;;;;;;;0.10;0.10;;;;;;;;;;1719200;28;21322;-71
2021/12/12 00:32:42;;;;;;;0.10;0.10;;;;;;;;;;1720495;28;20560;-71
2021/12/12 00:33:34;;;;;;;0.00;0.00;;;;;;;;;;1724136;28;20218;-71
2021/12/12 00:34:26;;;;;;;0.00;0.00;;;;;;;;;;1719927;28;20544;-71
2021/12/12 00:35:19;;;;;;;0.10;0.10;;;;;;;;;;1721518;28;20267;-71
2021/12/12 00:36:11;;;;;;;0.10;0.10;;;;;;;;;;1722224;28;20247;-71
2021/12/12 00:37:04;;;;;;;0.05;0.05;;;;;;;;;;1722003;28;20227;-71
2021/12/12 00:37:57;;;;;;;0.10;0.10;;;;;;;;;;1725317;28;20204;-72
2021/12/12 00:38:52;;;;;;;0.08;0.08;;;;;;;;;;1723540;28;20278;-72
2021/12/12 00:39:49;;;;;;;0.00;0.00;;;;;;;;;;1722558;28;20538;-71
2021/12/12 00:40:43;;;;;;;0.10;0.10;;;;;;;;;;1724714;28;20233;-72
2021/12/12 00:41:38;;;;;;;0.08;0.08;;;;;;;;;;1724482;28;20698;-71
2021/12/12 00:42:33;;;;;;;0.10;0.10;;;;;;;;;;1720190;28;20213;-71
2021/12/12 00:43:27;;;;;;;0.10;0.10;;;;;;;;;;1719685;28;20211;-71
2021/12/12 00:44:19;;;;;;;0.00;0.00;;;;;;;;;;1725607;28;20618;-71
2021/12/12 00:45:12;;;;;;;0.20;0.20;;;;;;;;;;1720848;28;20215;-71
2021/12/12 00:46:06;;;;;;;0.10;0.10;;;;;;;;;;1725341;28;20278;-71
2021/12/12 00:46:59;;;;;;;0.00;0.00;;;;;;;;;;1723228;28;20215;-72
2021/12/12 00:47:52;;;;;;;0.00;0.00;;;;;;;;;;1724856;28;20238;-71
2021/12/12 00:48:45;;;;;;;0.10;0.10;;;;;;;;;;1722439;28;20211;-72
2021/12/12 00:49:38;;;;;;;0.00;0.00;;;;;;;;;;1723336;28;20198;-72
2021/12/12 00:50:30;;;;;;;0.10;0.10;;;;;;;;;;1722330;28;20207;-72
2021/12/12 00:51:26;;;;;;;0.00;0.00;;;;;;;;;;1723567;28;20200;-71
2021/12/12 00:52:18;;;;;;;0.00;0.00;;;;;;;;;;1724374;28;20549;-71
2021/12/12 00:53:10;;;;;;;0.00;0.00;;;;;;;;;;1722439;28;20212;-71
2021/12/12 00:54:03;;;;;;;0.10;0.10;;;;;;;;;;1724916;28;20214;-71
2021/12/12 00:54:55;;;;;;;0.00;0.00;;;;;;;;;;1725080;28;20195;-71
2021/12/12 00:55:48;;;;;;;0.00;0.00;;;;;;;;;;1725758;28;20253;-71
2021/12/12 00:56:40;;;;;;;0.10;0.10;;;;;;;;;;1721594;28;20224;-71
2021/12/12 00:57:31;;;;;;;0.05;0.05;;;;;;;;;;1726285;28;20205;-71
2021/12/12 00:58:24;;;;;;;0.00;0.00;;;;;;;;;;1725587;28;20707;-71
2021/12/12 00:59:16;;;;;;;0.00;0.00;;;;;;;;;;1719385;28;20201;-71
2021/12/12 01:00:09;;;;;;;0.00;0.00;;;;;;;;;;1723334;28;20641;-71
2021/12/12 01:01:02;;;;;;;0.00;0.00;;;;;;;;;;1725032;28;20236;-71
2021/12/12 01:01:55;;;;;;;0.00;0.00;;;;;;;;;;1719834;28;20205;-71
2021/12/12 01:02:46;;;;;;;0.20;0.20;;;;;;;;;;1725280;28;20553;-71
2021/12/12 01:03:42;;;;;;;0.00;0.00;;;;;;;;;;1726191;28;20204;-71
2021/12/12 01:04:36;;;;;;;0.10;0.10;;;;;;;;;;1724433;28;20208;-71
2021/12/12 01:05:29;;;;;;;0.10;0.10;;;;;;;;;;1724664;28;20238;-71
2021/12/12 01:06:21;;;;;;;0.00;0.00;;;;;;;;;;1724649;28;20215;-71
2021/12/12 01:07:15;;;;;;;0.00;0.00;;;;;;;;;;1726052;28;20740;-71
2021/12/12 01:08:07;;;;;;;0.00;0.00;;;;;;;;;;1723361;28;20652;-71
2021/12/12 01:09:01;;;;;;;0.10;0.10;;;;;;;;;;1726039;28;20210;-71
2021/12/12 01:09:54;;;;;;;0.00;0.00;;;;;;;;;;1725648;28;20223;-71
2021/12/12 01:10:49;;;;;;;0.00;0.00;;;;;;;;;;1720095;28;20235;-71
2021/12/12 01:11:42;;;;;;;0.10;0.10;;;;;;;;;;1724798;28;20613;-71
2021/12/12 01:12:34;;;;;;;0.00;0.00;;;;;;;;;;1718987;28;20638;-71
2021/12/12 01:13:26;;;;;;;0.00;0.00;;;;;;;;;;1724810;28;20204;-71
2021/12/12 01:14:22;;;;;;;0.03;0.03;;;;;;;;;;1725591;28;20446;-71
2021/12/12 01:15:16;;;;;;;0.10;0.10;;;;;;;;;;1720615;28;20546;-71
2021/12/12 01:16:10;;;;;;;0.00;0.00;;;;;;;;;;1724912;28;20230;-71
2021/12/12 01:17:03;;;;;;;0.10;0.10;;;;;;;;;;1721246;28;20205;-71
2021/12/12 01:17:57;;;;;;;0.10;0.10;;;;;;;;;;1724987;28;20205;-71
2021/12/12 01:18:52;;;;;;;0.10;0.10;;;;;;;;;;1720256;28;20209;-71
2021/12/12 01:19:47;;;;;;;0.00;0.00;;;;;;;;;;1723240;28;20708;-71
2021/12/12 01:20:39;;;;;;;0.10;0.10;;;;;;;;;;1725529;28;20211;-71
2021/12/12 01:21:33;;;;;;;0.10;0.10;;;;;;;;;;1723690;28;20705;-71
2021/12/12 01:22:28;;;;;;;0.00;0.00;;;;;;;;;;1726340;28;20715;-71
2021/12/12 01:23:24;;;;;;;0.10;0.10;;;;;;;;;;1725473;28;20199;-71
2021/12/12 01:24:18;;;;;;;0.10;0.10;;;;;;;;;;1718993;28;20569;-71
2021/12/12 01:25:14;;;;;;;0.00;0.00;;;;;;;;;;1723703;28;20204;-71
2021/12/12 01:26:06;;;;;;;0.00;0.00;;;;;;;;;;1724544;28;20239;-71
2021/12/12 01:26:59;;;;;;;0.03;0.03;;;;;;;;;;1725273;28;20211;-71
2021/12/12 01:27:51;;;;;;;0.10;0.10;;;;;;;;;;1725129;28;20542;-71
2021/12/12 01:28:45;;;;;;;0.00;0.00;;;;;;;;;;1723510;28;20228;-71
2021/12/12 01:29:37;;;;;;;0.00;0.00;;;;;;;;;;1719876;28;20205;-71
2021/12/12 01:30:30;;;;;;;0.00;0.00;;;;;;;;;;1725950;28;20202;-71
2021/12/12 01:31:25;;;;;;;0.00;0.00;;;;;;;;;;1723747;28;20282;-71
2021/12/12 01:32:24;;;;;;;0.10;0.10;;;;;;;;;;1725743;28;20599;-71
2021/12/12 01:33:32;;;;;;;0.10;0.10;;;;;;;;;;1723814;28;20213;-71
2021/12/12 01:34:29;;;;;;;0.00;0.00;;;;;;;;;;1719450;28;20227;-71
2021/12/12 01:35:21;;;;;;;0.00;0.00;;;;;;;;;;1724615;28;20276;-72
2021/12/12 01:36:22;;;;;;;0.10;0.10;;;;;;;;;;1721790;28;20244;-71
2021/12/12 01:37:34;;;;;;;0.00;0.00;;;;;;;;;;1723576;28;20222;-72
2021/12/12 01:39:37;;;;;;;0.00;0.00;;;;;;;;;;1725071;28;20312;-71
2021/12/12 01:40:29;;;;;;;0.00;0.00;;;;;;;;;;1725755;28;20198;-71
2021/12/12 01:41:24;;;;;;;0.00;0.00;;;;;;;;;;1723679;28;20197;-71
2021/12/12 01:42:17;;;;;;;0.10;0.10;;;;;;;;;;1723475;28;20212;-71
2021/12/12 01:43:12;;;;;;;0.00;0.00;;;;;;;;;;1725600;28;20500;-71
2021/12/12 01:44:06;;;;;;;0.00;0.00;;;;;;;;;;1725874;28;20212;-71
2021/12/12 01:45:00;;;;;;;0.00;0.00;;;;;;;;;;1724395;28;20473;-71
2021/12/12 01:45:53;;;;;;;0.00;0.00;;;;;;;;;;1725474;28;20232;-72
2021/12/12 01:46:47;;;;;;;0.00;0.00;;;;;;;;;;1723118;28;20196;-71
2021/12/12 01:47:40;;;;;;;0.08;0.08;;;;;;;;;;1725962;28;20204;-71
2021/12/12 01:48:35;;;;;;;0.10;0.10;;;;;;;;;;1723950;28;20228;-71
2021/12/12 01:49:29;;;;;;;0.10;0.10;;;;;;;;;;1725615;28;20215;-71
2021/12/12 01:50:23;;;;;;;0.00;0.00;;;;;;;;;;1720802;28;20271;-71
2021/12/12 01:51:17;;;;;;;0.00;0.00;;;;;;;;;;1723732;28;21025;-71
2021/12/12 01:52:10;;;;;;;0.10;0.10;;;;;;;;;;1722423;28;20278;-71
2021/12/12 01:53:04;;;;;;;0.00;0.00;;;;;;;;;;1724896;28;20543;-71
2021/12/12 01:53:57;;;;;;;0.00;0.00;;;;;;;;;;1726186;28;20641;-71
2021/12/12 01:54:50;;;;;;;0.00;0.00;;;;;;;;;;1725074;28;20560;-71
2021/12/12 01:55:45;;;;;;;0.03;0.03;;;;;;;;;;1725803;28;20556;-71
2021/12/12 01:56:42;;;;;;;0.10;0.10;;;;;;;;;;1722821;28;20656;-71
2021/12/12 01:57:36;;;;;;;0.00;0.00;;;;;;;;;;1726129;28;20199;-71
2021/12/12 01:58:29;;;;;;;0.10;0.10;;;;;;;;;;1723787;28;20217;-71
2021/12/12 01:59:27;;;;;;;0.00;0.00;;;;;;;;;;1725909;28;20663;-71
2021/12/12 02:00:21;;;;;;;0.10;0.10;;;;;;;;;;1721976;28;20204;-71
2021/12/12 02:01:16;;;;;;;0.10;0.10;;;;;;;;;;1723764;28;20238;-71
2021/12/12 02:02:09;;;;;;;0.00;0.00;;;;;;;;;;1722218;28;20219;-71
2021/12/12 02:03:01;;;;;;;0.00;0.00;;;;;;;;;;1720014;28;20208;-71
2021/12/12 02:03:54;;;;;;;0.00;0.00;;;;;;;;;;1725617;28;20222;-71
2021/12/12 02:04:49;;;;;;;0.10;0.10;;;;;;;;;;1724143;28;20269;-71
2021/12/12 02:05:40;;;;;;;0.10;0.10;;;;;;;;;;1725585;28;20232;-71
2021/12/12 02:06:34;;;;;;;0.00;0.00;;;;;;;;;;1722088;28;20208;-71
2021/12/12 02:07:27;;;;;;;0.10;0.10;;;;;;;;;;1726025;28;20500;-72
2021/12/12 02:08:20;;;;;;;0.00;0.00;;;;;;;;;;1724056;28;20266;-71
2021/12/12 02:09:12;;;;;;;0.10;0.10;;;;;;;;;;1724976;28;20204;-71
2021/12/12 02:10:07;;;;;;;0.10;0.10;;;;;;;;;;1724017;28;20227;-71
2021/12/12 02:11:00;;;;;;;0.15;0.15;;;;;;;;;;1718174;28;20480;-71
2021/12/12 02:11:54;;;;;;;0.00;0.00;;;;;;;;;;1725552;28;20207;-71
2021/12/12 02:12:46;;;;;;;0.00;0.00;;;;;;;;;;1725810;28;20214;-71
2021/12/12 02:13:39;;;;;;;0.00;0.00;;;;;;;;;;1724146;28;20219;-71
2021/12/12 02:14:32;;;;;;;0.00;0.00;;;;;;;;;;1725213;28;20215;-71
2021/12/12 02:15:25;;;;;;;0.00;0.00;;;;;;;;;;1724271;28;20650;-71
2021/12/12 02:16:17;;;;;;;0.00;0.00;;;;;;;;;;1725101;28;20277;-71
2021/12/12 02:17:13;;;;;;;0.10;0.10;;;;;;;;;;1725492;28;20221;-71
2021/12/12 02:18:07;;;;;;;0.00;0.00;;;;;;;;;;1725244;28;20588;-71
2021/12/12 02:19:00;;;;;;;0.17;0.17;;;;;;;;;;1723260;28;20317;-71
2021/12/12 02:20:04;;;;;;;0.00;0.00;;;;;;;;;;1719483;28;20562;-71
2021/12/12 02:21:08;;;;;;;0.10;0.10;;;;;;;;;;1717054;28;20239;-71
2021/12/12 02:22:06;;;;;;;0.03;0.03;;;;;;;;;;1720729;28;20216;-71
2021/12/12 02:23:07;;;;;;;0.00;0.00;;;;;;;;;;1725149;28;20211;-71
2021/12/12 02:35:16;;;;;;;0.20;0.20;;;;;;;;;;1724193;28;20598;-71
2021/12/12 02:36:10;;;;;;;0.00;0.00;;;;;;;;;;1720771;28;20278;-71
2021/12/12 02:37:04;;;;;;;0.10;0.10;;;;;;;;;;1720838;28;20240;-71
2021/12/12 02:37:57;;;;;;;0.10;0.10;;;;;;;;;;1723480;28;20211;-71
2021/12/12 02:38:51;;;;;;;0.00;0.00;;;;;;;;;;1723517;28;20228;-71
2021/12/12 02:39:43;;;;;;;0.00;0.00;;;;;;;;;;1724965;28;20247;-71
2021/12/12 02:40:38;;;;;;;0.00;0.00;;;;;;;;;;1725084;28;20624;-72
2021/12/12 02:41:29;;;;;;;0.00;0.00;;;;;;;;;;1723936;28;20573;-71
2021/12/12 02:42:22;;;;;;;0.00;0.00;;;;;;;;;;1725812;28;20201;-71
2021/12/12 02:43:14;;;;;;;0.15;0.15;;;;;;;;;;1723457;28;20296;-71
2021/12/12 02:44:06;;;;;;;0.00;0.00;;;;;;;;;;1725016;28;20201;-71
2021/12/12 02:45:00;;;;;;;0.08;0.08;;;;;;;;;;1723338;28;20570;-71
2021/12/12 02:45:54;;;;;;;0.00;0.00;;;;;;;;;;1725258;28;20561;-71
2021/12/12 02:46:46;;;;;;;0.10;0.10;;;;;;;;;;1719201;28;20283;-71
2021/12/12 02:47:39;;;;;;;0.00;0.00;;;;;;;;;;1725586;28;20208;-71
2021/12/12 02:48:32;;;;;;;0.00;0.00;;;;;;;;;;1724179;28;20201;-72
2021/12/12 02:49:39;;;;;;;0.03;0.03;;;;;;;;;;1725167;28;20212;-71
2021/12/12 02:50:32;;;;;;;0.10;0.10;;;;;;;;;;1716853;28;20210;-71
2021/12/12 02:51:24;;;;;;;0.13;0.13;;;;;;;;;;1720843;28;20712;-72
2021/12/12 02:52:17;;;;;;;0.10;0.10;;;;;;;;;;1725754;28;20209;-72
2021/12/12 02:53:11;;;;;;;0.00;0.00;;;;;;;;;;1723096;28;20216;-71
2021/12/12 02:54:04;;;;;;;0.05;0.05;;;;;;;;;;1725808;28;20207;-71
2021/12/12 02:54:58;;;;;;;0.00;0.00;;;;;;;;;;1723210;28;20212;-71
2021/12/12 02:55:51;;;;;;;0.00;0.00;;;;;;;;;;1724864;28;20609;-71
2021/12/12 02:56:44;;;;;;;0.00;0.00;;;;;;;;;;1724026;28;20219;-71
2021/12/12 02:57:35;;;;;;;0.10;0.10;;;;;;;;;;1725106;28;20206;-71
2021/12/12 02:58:29;;;;;;;0.08;0.08;;;;;;;;;;1722235;28;20196;-71
2021/12/12 02:59:23;;;;;;;0.00;0.00;;;;;;;;;;1725305;28;20219;-71
2021/12/12 03:00:18;;;;;;;0.00;0.00;;;;;;;;;;1725565;28;20287;-71
2021/12/12 03:01:11;;;;;;;0.10;0.10;;;;;;;;;;1723553;28;20245;-71
2021/12/12 03:02:05;;;;;;;0.00;0.00;;;;;;;;;;1721418;28;20204;-71
2021/12/12 03:02:58;;;;;;;0.08;0.08;;;;;;;;;;1723069;28;20216;-71
2021/12/12 03:03:51;;;;;;;0.00;0.00;;;;;;;;;;1721143;28;20203;-71
2021/12/12 03:04:42;;;;;;;0.03;0.03;;;;;;;;;;1718377;28;20209;-71
2021/12/12 03:05:36;;;;;;;0.00;0.00;;;;;;;;;;1722443;28;20540;-71
2021/12/12 03:06:29;;;;;;;0.20;0.20;;;;;;;;;;1721488;28;20218;-71
2021/12/12 03:07:21;;;;;;;0.00;0.00;;;;;;;;;;1725510;28;20634;-71
2021/12/12 03:08:13;;;;;;;0.00;0.00;;;;;;;;;;1724541;28;20658;-71
2021/12/12 03:09:08;;;;;;;0.00;0.00;;;;;;;;;;1719824;28;20224;-71
2021/12/12 03:10:00;;;;;;;0.05;0.05;;;;;;;;;;1721064;28;20274;-71
2021/12/12 03:10:53;;;;;;;0.00;0.00;;;;;;;;;;1725121;28;20288;-71
2021/12/12 03:11:45;;;;;;;0.00;0.00;;;;;;;;;;1724475;28;20211;-71
2021/12/12 03:12:37;;;;;;;0.00;0.00;;;;;;;;;;1718210;28;20197;-72
2021/12/12 03:13:28;;;;;;;0.00;0.00;;;;;;;;;;1722337;28;20642;-72
2021/12/12 03:14:21;;;;;;;0.10;0.10;;;;;;;;;;1725288;28;20286;-71
2021/12/12 03:15:14;;;;;;;0.00;0.00;;;;;;;;;;1723338;28;20219;-71
2021/12/12 03:16:07;;;;;;;0.08;0.08;;;;;;;;;;1724247;28;20805;-71
2021/12/12 03:16:58;;;;;;;0.10;0.10;;;;;;;;;;1723689;28;20212;-71
2021/12/12 03:17:51;;;;;;;0.00;0.00;;;;;;;;;;1724510;28;20313;-71
2021/12/12 03:18:45;;;;;;;0.00;0.00;;;;;;;;;;1720270;28;20205;-71
2021/12/12 03:19:38;;;;;;;0.00;0.00;;;;;;;;;;1719628;28;20197;-71
2021/12/12 03:20:32;;;;;;;0.00;0.00;;;;;;;;;;1721258;28;20534;-71
2021/12/12 03:21:30;;;;;;;0.00;0.00;;;;;;;;;;1720515;28;20201;-71
2021/12/12 03:22:22;;;;;;;0.10;0.10;;;;;;;;;;1725710;28;20283;-71
2021/12/12 03:23:17;;;;;;;0.00;0.00;;;;;;;;;;1723206;28;20218;-71
2021/12/12 03:24:12;;;;;;;0.00;0.00;;;;;;;;;;1725034;28;20218;-71
2021/12/12 03:25:07;;;;;;;0.10;0.10;;;;;;;;;;1725119;28;20665;-71
2021/12/12 03:26:00;;;;;;;0.00;0.00;;;;;;;;;;1724432;28;20623;-71
2021/12/12 03:26:54;;;;;;;0.00;0.00;;;;;;;;;;1724029;28;20309;-71
2021/12/12 03:27:45;;;;;;;0.00;0.00;;;;;;;;;;1725347;28;20205;-71
2021/12/12 03:28:38;;;;;;;0.10;0.10;;;;;;;;;;1719632;28;20347;-71
2021/12/12 03:29:30;;;;;;;0.00;0.00;;;;;;;;;;1724278;28;20591;-71
2021/12/12 03:30:22;;;;;;;0.00;0.00;;;;;;;;;;1720665;28;20262;-71
2021/12/12 03:31:17;;;;;;;0.00;0.00;;;;;;;;;;1723585;28;20255;-71
2021/12/12 03:32:11;;;;;;;0.00;0.00;;;;;;;;;;1721533;28;20753;-71
2021/12/12 03:33:03;;;;;;;0.00;0.00;;;;;;;;;;1722112;28;20639;-71
2021/12/12 03:33:56;;;;;;;0.00;0.00;;;;;;;;;;1725486;28;20649;-71
2021/12/12 03:34:49;;;;;;;0.00;0.00;;;;;;;;;;1722990;28;20204;-71
2021/12/12 03:35:41;;;;;;;0.00;0.00;;;;;;;;;;1725033;28;20199;-71
2021/12/12 03:36:32;;;;;;;0.00;0.00;;;;;;;;;;1722600;28;20219;-71
2021/12/12 03:37:26;;;;;;;0.00;0.00;;;;;;;;;;1725487;28;20293;-71
2021/12/12 03:38:17;;;;;;;0.00;0.00;;;;;;;;;;1720224;28;20212;-71
2021/12/12 03:39:13;;;;;;;0.00;0.00;;;;;;;;;;1724919;28;20196;-71
2021/12/12 03:40:08;;;;;;;0.00;0.00;;;;;;;;;;1715974;28;20216;-71
2021/12/12 03:41:02;;;;;;;0.00;0.00;;;;;;;;;;1710620;28;20318;-71
2021/12/12 03:41:54;;;;;;;0.00;0.00;;;;;;;;;;1713374;28;20220;-71
2021/12/12 03:42:49;;;;;;;0.00;0.00;;;;;;;;;;1718392;28;20211;-71
2021/12/12 03:43:41;;;;;;;0.00;0.00;;;;;;;;;;1715082;28;20204;-71
2021/12/12 03:44:34;;;;;;;0.10;0.10;;;;;;;;;;1717061;28;20235;-71
2021/12/12 03:45:26;;;;;;;0.00;0.00;;;;;;;;;;1711301;28;20202;-72
2021/12/12 03:46:19;;;;;;;0.05;0.05;;;;;;;;;;1712953;28;20264;-71
2021/12/12 03:47:11;;;;;;;0.00;0.00;;;;;;;;;;1711317;28;20217;-71
2021/12/12 03:48:06;;;;;;;0.00;0.00;;;;;;;;;;1713477;28;20239;-71
2021/12/12 03:48:57;;;;;;;0.00;0.00;;;;;;;;;;1715745;28;20278;-71
2021/12/12 03:49:50;;;;;;;0.00;0.00;;;;;;;;;;1716451;28;20219;-71
2021/12/12 03:50:43;;;;;;;0.00;0.00;;;;;;;;;;1717811;28;20246;-71
2021/12/12 03:51:36;;;;;;;0.10;0.10;;;;;;;;;;1716602;28;20220;-71
2021/12/12 03:52:28;;;;;;;0.00;0.00;;;;;;;;;;1717227;28;20625;-71
2021/12/12 03:53:20;;;;;;;0.10;0.10;;;;;;;;;;1716329;28;20236;-71
2021/12/12 03:54:14;;;;;;;0.00;0.00;;;;;;;;;;1718041;28;20216;-71
2021/12/12 03:55:08;;;;;;;0.00;0.00;;;;;;;;;;1715113;28;20649;-71
2021/12/12 03:55:59;;;;;;;0.05;0.05;;;;;;;;;;1717624;28;20726;-71
2021/12/12 03:56:52;;;;;;;0.10;0.10;;;;;;;;;;1715629;28;20220;-71
2021/12/12 03:57:44;;;;;;;0.10;0.10;;;;;;;;;;1715867;28;20231;-71
2021/12/12 03:58:39;;;;;;;0.03;0.03;;;;;;;;;;1715339;28;20248;-71
2021/12/12 03:59:31;;;;;;;0.20;0.20;;;;;;;;;;1716139;28;20197;-71
2021/12/12 04:00:25;;;;;;;0.10;0.10;;;;;;;;;;1713870;28;20229;-71
2021/12/12 04:01:18;;;;;;;0.00;0.00;;;;;;;;;;1712465;28;20641;-71
2021/12/12 04:02:10;;;;;;;0.10;0.10;;;;;;;;;;1715966;28;20695;-71
2021/12/12 04:03:01;;;;;;;0.00;0.00;;;;;;;;;;1717341;28;20219;-71
2021/12/12 04:03:55;;;;;;;0.00;0.00;;;;;;;;;;1719517;28;20205;-70
2021/12/12 04:04:47;;;;;;;0.00;0.00;;;;;;;;;;1716994;28;20604;-71
2021/12/12 04:05:39;;;;;;;0.00;0.00;;;;;;;;;;1719495;28;20645;-71
2021/12/12 04:06:31;;;;;;;0.17;0.17;;;;;;;;;;1717299;28;20216;-71
2021/12/12 04:07:24;;;;;;;0.00;0.00;;;;;;;;;;1718380;28;20251;-71
2021/12/12 04:08:16;;;;;;;0.00;0.00;;;;;;;;;;1717099;28;20209;-71
2021/12/12 04:09:09;;;;;;;0.00;0.00;;;;;;;;;;1718957;28;20200;-71
2021/12/12 04:10:06;;;;;;;0.00;0.00;;;;;;;;;;1717302;28;20208;-71
2021/12/12 04:11:02;;;;;;;0.10;0.10;;;;;;;;;;1712388;28;20237;-71
2021/12/12 04:11:54;;;;;;;0.05;0.05;;;;;;;;;;1714509;28;20552;-71
2021/12/12 04:12:47;;;;;;;0.00;0.00;;;;;;;;;;1719813;28;20303;-71
2021/12/12 04:13:39;;;;;;;0.00;0.00;;;;;;;;;;1718473;28;20208;-71
2021/12/12 04:14:31;;;;;;;0.00;0.00;;;;;;;;;;1716465;28;20213;-71
2021/12/12 04:15:23;;;;;;;0.00;0.00;;;;;;;;;;1718481;28;20219;-71
2021/12/12 04:16:15;;;;;;;0.00;0.00;;;;;;;;;;1718276;28;20227;-71
2021/12/12 04:17:08;;;;;;;0.00;0.00;;;;;;;;;;1719283;28;20294;-71
2021/12/12 04:18:00;;;;;;;0.00;0.00;;;;;;;;;;1716485;28;20205;-71
2021/12/12 04:18:51;;;;;;;0.10;0.10;;;;;;;;;;1717264;28;20333;-71
2021/12/12 04:19:45;;;;;;;0.00;0.00;;;;;;;;;;1715078;28;20636;-71
2021/12/12 04:20:39;;;;;;;0.00;0.00;;;;;;;;;;1718299;28;20209;-71
2021/12/12 04:21:31;;;;;;;0.05;0.05;;;;;;;;;;1717556;28;20209;-71
2021/12/12 04:22:23;;;;;;;0.00;0.00;;;;;;;;;;1719814;28;20205;-71
2021/12/12 04:23:16;;;;;;;0.00;0.00;;;;;;;;;;1716134;28;20279;-71
2021/12/12 04:24:08;;;;;;;0.05;0.05;;;;;;;;;;1718943;28;20351;-71
2021/12/12 04:25:00;;;;;;;0.10;0.10;;;;;;;;;;1717966;28;20304;-71
2021/12/12 04:25:53;;;;;;;0.00;0.00;;;;;;;;;;1719459;28;20236;-71
2021/12/12 04:26:45;;;;;;;0.00;0.00;;;;;;;;;;1716144;28;20383;-71
2021/12/12 04:27:37;;;;;;;0.00;0.00;;;;;;;;;;1713125;28;20866;-71
2021/12/12 04:28:29;;;;;;;0.00;0.00;;;;;;;;;;1716421;28;20539;-71
2021/12/12 04:29:22;;;;;;;0.00;0.00;;;;;;;;;;1717966;28;20237;-71
2021/12/12 04:30:15;;;;;;;0.00;0.00;;;;;;;;;;1716081;28;20568;-71
2021/12/12 04:31:06;;;;;;;0.00;0.00;;;;;;;;;;1712076;28;20237;-71
2021/12/12 04:32:00;;;;;;;0.00;0.00;;;;;;;;;;1716723;28;20205;-71
2021/12/12 04:32:52;;;;;;;0.00;0.00;;;;;;;;;;1716121;28;20207;-71
2021/12/12 04:33:44;;;;;;;0.00;0.00;;;;;;;;;;1720051;28;20303;-71
2021/12/12 04:34:38;;;;;;;0.00;0.00;;;;;;;;;;1716868;28;20555;-71
2021/12/12 04:35:30;;;;;;;0.10;0.10;;;;;;;;;;1713966;28;20268;-71
2021/12/12 04:36:25;;;;;;;0.00;0.00;;;;;;;;;;1714816;28;20221;-71
2021/12/12 04:37:16;;;;;;;0.00;0.00;;;;;;;;;;1717114;28;20205;-71
2021/12/12 04:38:09;;;;;;;0.00;0.00;;;;;;;;;;1715743;28;20205;-71
2021/12/12 04:39:02;;;;;;;0.00;0.00;;;;;;;;;;1719335;28;20958;-71
2021/12/12 04:39:57;;;;;;;0.10;0.10;;;;;;;;;;1722180;28;20232;-71
2021/12/12 04:40:48;;;;;;;0.03;0.03;;;;;;;;;;1726085;28;20235;-71
2021/12/12 04:41:42;;;;;;;0.00;0.00;;;;;;;;;;1723932;28;20225;-71
2021/12/12 04:42:35;;;;;;;0.13;0.13;;;;;;;;;;1726582;28;20212;-71
2021/12/12 04:43:28;;;;;;;0.00;0.00;;;;;;;;;;1723071;28;20258;-70
2021/12/12 04:44:20;;;;;;;0.00;0.00;;;;;;;;;;1725656;28;20207;-70
2021/12/12 04:45:21;;;;;;;0.00;0.00;;;;;;;;;;1726209;28;20263;-70
2021/12/12 04:46:22;;;;;;;0.00;0.00;;;;;;;;;;1725396;28;20597;-70
2021/12/12 04:49:57;;;;;;;0.00;0.00;;;;;;;;;;1725300;28;20311;-71
2021/12/12 04:50:51;;;;;;;0.00;0.00;;;;;;;;;;1721637;28;20240;-71
2021/12/12 04:51:44;;;;;;;0.08;0.08;;;;;;;;;;1719172;28;20228;-71
2021/12/12 04:52:38;;;;;;;0.00;0.00;;;;;;;;;;1719698;28;20216;-71
2021/12/12 04:53:32;;;;;;;0.00;0.00;;;;;;;;;;1717410;28;20261;-71
2021/12/12 04:54:27;;;;;;;0.00;0.00;;;;;;;;;;1719616;28;20212;-71
2021/12/12 04:55:22;;;;;;;0.10;0.10;;;;;;;;;;1718005;28;20217;-71
2021/12/12 04:56:18;;;;;;;0.03;0.03;;;;;;;;;;1723447;28;20691;-71
2021/12/12 04:57:14;;;;;;;0.00;0.00;;;;;;;;;;1725893;28;20515;-71
2021/12/12 04:58:08;;;;;;;0.00;0.00;;;;;;;;;;1725487;28;20226;-71
2021/12/12 04:59:03;;;;;;;0.00;0.00;;;;;;;;;;1726474;28;20212;-71
2021/12/12 04:59:57;;;;;;;0.05;0.05;;;;;;;;;;1723906;28;20619;-71
2021/12/12 05:00:52;;;;;;;0.10;0.10;;;;;;;;;;1721930;28;20667;-71
2021/12/12 05:01:45;;;;;;;0.00;0.00;;;;;;;;;;1717187;28;20208;-71
2021/12/12 05:02:42;;;;;;;0.00;0.00;;;;;;;;;;1717569;28;20227;-71
2021/12/12 05:03:37;;;;;;;0.10;0.10;;;;;;;;;;1717197;28;20201;-71
2021/12/12 05:04:31;;;;;;;0.00;0.00;;;;;;;;;;1719150;28;20527;-71
2021/12/12 05:05:25;;;;;;;0.10;0.10;;;;;;;;;;1718704;28;20213;-71
2021/12/12 05:06:22;;;;;;;0.10;0.10;;;;;;;;;;1717835;28;20206;-71
2021/12/12 05:07:16;;;;;;;0.10;0.10;;;;;;;;;;1723103;28;20404;-71
2021/12/12 05:08:11;;;;;;;0.00;0.00;;;;;;;;;;1720992;28;20787;-71
2021/12/12 05:09:05;;;;;;;0.10;0.10;;;;;;;;;;1724141;28;20215;-71
2021/12/12 05:10:00;;;;;;;0.00;0.00;;;;;;;;;;1718990;28;20225;-71
2021/12/12 05:10:54;;;;;;;0.03;0.03;;;;;;;;;;1719194;28;20622;-71
2021/12/12 05:11:49;;;;;;;0.10;0.10;;;;;;;;;;1724751;28;20440;-71
2021/12/12 05:12:44;;;;;;;0.10;0.10;;;;;;;;;;1719186;28;20682;-71
2021/12/12 05:13:37;;;;;;;0.00;0.00;;;;;;;;;;1724836;28;20197;-71
2021/12/12 05:14:32;;;;;;;0.00;0.00;;;;;;;;;;1725361;28;20212;-71
2021/12/12 05:15:26;;;;;;;0.10;0.10;;;;;;;;;;1718371;28;20624;-71
2021/12/12 05:16:21;;;;;;;0.10;0.10;;;;;;;;;;1713768;28;20209;-71
2021/12/12 05:17:15;;;;;;;0.00;0.00;;;;;;;;;;1712704;28;20206;-71
2021/12/12 05:18:08;;;;;;;0.00;0.00;;;;;;;;;;1713553;28;20219;-71
2021/12/12 05:19:05;;;;;;;0.00;0.00;;;;;;;;;;1716687;28;20212;-71
2021/12/12 05:19:58;;;;;;;0.03;0.03;;;;;;;;;;1714636;28;20733;-71
2021/12/12 05:20:54;;;;;;;0.00;0.00;;;;;;;;;;1718297;28;20335;-71
2021/12/12 05:21:48;;;;;;;0.00;0.00;;;;;;;;;;1717540;28;20872;-71
2021/12/12 05:22:41;;;;;;;0.03;0.03;;;;;;;;;;1712657;28;20221;-71
2021/12/12 05:23:33;;;;;;;0.10;0.10;;;;;;;;;;1716504;28;20205;-71
2021/12/12 05:24:27;;;;;;;0.20;0.20;;;;;;;;;;1719406;28;20220;-71
2021/12/12 05:25:20;;;;;;;0.10;0.10;;;;;;;;;;1718008;28;20220;-71
2021/12/12 05:26:14;;;;;;;0.00;0.00;;;;;;;;;;1717606;28;20972;-71
2021/12/12 05:27:07;;;;;;;0.10;0.10;;;;;;;;;;1714228;28;20221;-71
2021/12/12 05:28:00;;;;;;;0.10;0.10;;;;;;;;;;1717440;28;20505;-70
2021/12/12 05:28:58;;;;;;;0.10;0.10;;;;;;;;;;1718009;28;20216;-70
2021/12/12 05:29:55;;;;;;;0.00;0.00;;;;;;;;;;1715686;28;20234;-70
2021/12/12 05:30:48;;;;;;;0.00;0.00;;;;;;;;;;1712488;28;20295;-70
2021/12/12 05:31:40;;;;;;;0.10;0.10;;;;;;;;;;1712030;28;20527;-71
2021/12/12 05:32:34;;;;;;;0.00;0.00;;;;;;;;;;1717911;28;20798;-71
2021/12/12 05:33:26;;;;;;;0.00;0.00;;;;;;;;;;1713652;28;20204;-71
2021/12/12 05:34:21;;;;;;;0.17;0.17;;;;;;;;;;1719336;28;20223;-71
2021/12/12 05:35:14;;;;;;;0.00;0.00;;;;;;;;;;1712996;28;20205;-71
2021/12/12 05:36:06;;;;;;;0.10;0.10;;;;;;;;;;1711858;28;20579;-71
2021/12/12 05:37:01;;;;;;;0.00;0.00;;;;;;;;;;1717904;28;20296;-71